createdAt,value
2023-05-15T00:01:54.795Z,9.10
2023-05-15T00:04:21.356Z,8.96
2023-05-15T00:06:47.819Z,9.11
2023-05-15T00:09:15.377Z,9.12
2023-05-15T00:11:41.833Z,9.08
2023-05-15T00:14:08.373Z,8.99
2023-05-15T00:16:35.005Z,9.08
2023-05-15T00:19:01.522Z,9.11
2023-05-15T00:21:27.951Z,9.01
2023-05-15T00:23:54.310Z,8.96
2023-05-15T00:26:23.521Z,8.98
2023-05-15T00:28:50.803Z,8.90
2023-05-15T00:31:17.244Z,8.80
2023-05-15T00:33:43.723Z,8.57
2023-05-15T00:36:10.239Z,8.44
2023-05-15T00:38:36.696Z,8.66
2023-05-15T00:41:06.397Z,8.81
2023-05-15T00:43:33.172Z,8.71
2023-05-15T00:46:00.286Z,8.59
2023-05-15T00:48:29.065Z,8.71
2023-05-15T00:50:57.693Z,8.71
2023-05-15T00:53:24.533Z,8.60
2023-05-15T00:55:52.994Z,8.53
2023-05-15T00:58:21.822Z,8.45
2023-05-15T01:00:51.053Z,8.46
2023-05-15T01:03:17.799Z,8.32
2023-05-15T01:05:45.044Z,8.51
2023-05-15T01:08:34.309Z,8.66
2023-05-15T01:11:03.950Z,8.54
2023-05-15T01:13:30.505Z,8.47
2023-05-15T01:15:58.918Z,8.26
2023-05-15T01:18:32.050Z,8.00
2023-05-15T01:21:01.557Z,8.31
2023-05-15T01:23:47.036Z,8.30
2023-05-15T01:26:38.982Z,8.31
2023-05-15T01:29:47.875Z,8.44
2023-05-15T01:32:23.807Z,8.46
2023-05-15T01:35:02.647Z,8.51
2023-05-15T01:37:31.935Z,8.32
2023-05-15T01:40:02.409Z,8.39
2023-05-15T01:42:33.406Z,8.11
2023-05-15T01:45:04.604Z,8.41
2023-05-15T01:47:48.631Z,8.25
2023-05-15T01:50:17.417Z,8.37
2023-05-15T01:52:49.105Z,8.41
2023-05-15T01:55:16.476Z,8.31
2023-05-15T01:57:43.430Z,8.37
2023-05-15T02:00:11.668Z,8.49
2023-05-15T02:02:42.210Z,8.53
2023-05-15T02:05:09.730Z,8.56
2023-05-15T02:07:36.886Z,8.70
2023-05-15T02:10:03.858Z,8.74
2023-05-15T02:12:31.696Z,8.80
2023-05-15T02:14:59.622Z,8.84
2023-05-15T02:17:27.966Z,8.80
2023-05-15T02:19:54.417Z,8.70
2023-05-15T02:22:20.875Z,8.64
2023-05-15T02:24:47.370Z,8.64
2023-05-15T02:27:28.953Z,8.58
2023-05-15T02:30:01.583Z,8.56
2023-05-15T02:32:39.529Z,8.70
2023-05-15T02:35:41.054Z,8.72
2023-05-15T02:38:15.607Z,8.62
2023-05-15T02:40:44.277Z,8.42
2023-05-15T02:43:11.300Z,8.51
2023-05-15T02:45:39.367Z,8.45
2023-05-15T02:48:07.060Z,8.22
2023-05-15T02:50:33.910Z,8.57
2023-05-15T02:53:07.584Z,8.44
2023-05-15T02:55:34.582Z,8.33
2023-05-15T02:58:01.455Z,8.39
2023-05-15T03:00:28.183Z,8.44
2023-05-15T03:02:54.927Z,8.34
2023-05-15T03:05:21.442Z,8.38
2023-05-15T03:07:47.974Z,8.42
2023-05-15T03:10:14.535Z,8.16
2023-05-15T03:12:41.133Z,7.94
2023-05-15T03:15:07.931Z,8.01
2023-05-15T03:17:35.596Z,8.12
2023-05-15T03:20:02.156Z,7.99
2023-05-15T03:22:28.666Z,8.16
2023-05-15T03:24:55.122Z,8.16
2023-05-15T03:27:21.631Z,8.16
2023-05-15T03:29:50.852Z,8.27
2023-05-15T03:32:17.801Z,8.08
2023-05-15T03:34:44.637Z,7.92
2023-05-15T03:37:11.114Z,8.03
2023-05-15T03:39:37.595Z,8.05
2023-05-15T03:42:04.734Z,7.99
2023-05-15T03:44:31.232Z,7.79
2023-05-15T03:46:57.738Z,7.66
2023-05-15T03:49:24.276Z,7.84
2023-05-15T03:51:50.739Z,7.84
2023-05-15T03:54:17.589Z,7.90
2023-05-15T03:56:44.418Z,7.87
2023-05-15T03:59:11.015Z,7.82
2023-05-15T04:01:44.246Z,7.73
2023-05-15T04:04:17.694Z,7.64
2023-05-15T04:06:44.108Z,7.63
2023-05-15T04:09:10.499Z,7.82
2023-05-15T04:11:36.982Z,7.97
2023-05-15T04:14:03.508Z,8.03
2023-05-15T04:16:30.008Z,8.03
2023-05-15T04:18:56.586Z,8.00
2023-05-15T04:21:23.091Z,7.85
2023-05-15T04:23:49.553Z,8.02
2023-05-15T04:26:16.436Z,8.22
2023-05-15T04:28:52.396Z,8.23
2023-05-15T04:31:23.859Z,8.27
2023-05-15T04:33:51.310Z,8.23
2023-05-15T04:36:17.870Z,8.21
2023-05-15T04:38:44.315Z,8.08
2023-05-15T04:41:11.241Z,8.10
2023-05-15T04:43:38.803Z,8.19
2023-05-15T04:46:05.950Z,8.36
2023-05-15T04:48:32.380Z,8.24
2023-05-15T04:50:58.754Z,8.61
2023-05-15T04:53:25.347Z,8.79
2023-05-15T04:55:51.768Z,8.90
2023-05-15T04:58:18.189Z,8.95
2023-05-15T05:00:44.632Z,9.00
2023-05-15T05:03:11.545Z,9.02
2023-05-15T05:05:38.084Z,8.49
2023-05-15T05:08:04.653Z,8.93
2023-05-15T05:10:31.099Z,9.01
2023-05-15T05:12:57.479Z,9.01
2023-05-15T05:15:24.097Z,9.02
2023-05-15T05:17:51.268Z,9.05
2023-05-15T05:20:17.784Z,9.15
2023-05-15T05:22:44.277Z,9.15
2023-05-15T05:25:10.805Z,9.30
2023-05-15T05:27:37.260Z,9.43
2023-05-15T05:30:04.081Z,9.45
2023-05-15T05:32:30.518Z,9.45
2023-05-15T05:34:56.920Z,9.39
2023-05-15T05:37:23.559Z,9.57
2023-05-15T05:39:49.937Z,9.67
2023-05-15T05:42:16.458Z,10.52
2023-05-15T05:44:42.956Z,10.99
2023-05-15T05:47:09.446Z,11.34
2023-05-15T05:49:36.145Z,11.41
2023-05-15T05:52:07.993Z,11.37
2023-05-15T05:54:34.647Z,11.17
2023-05-15T05:57:01.184Z,11.31
2023-05-15T05:59:29.089Z,11.21
2023-05-15T06:01:55.614Z,11.03
2023-05-15T06:04:22.306Z,10.79
2023-05-15T06:06:49.961Z,10.61
2023-05-15T06:09:16.615Z,10.50
2023-05-15T06:11:43.084Z,10.76
2023-05-15T06:14:09.511Z,11.32
2023-05-15T06:16:35.992Z,11.97
2023-05-15T06:19:02.619Z,12.72
2023-05-15T06:21:29.172Z,13.44
2023-05-15T06:23:55.610Z,14.07
2023-05-15T06:26:22.441Z,14.48
2023-05-15T06:28:48.840Z,14.92
2023-05-15T06:31:15.543Z,15.36
2023-05-15T06:33:41.967Z,15.57
2023-05-15T06:36:08.808Z,15.90
2023-05-15T06:38:35.217Z,16.03
2023-05-15T06:41:01.718Z,16.39
2023-05-15T06:43:28.177Z,16.83
2023-05-15T06:45:54.547Z,17.02
2023-05-15T06:48:21.032Z,17.34
2023-05-15T06:50:47.480Z,17.60
2023-05-15T06:53:14.612Z,17.79
2023-05-15T06:55:41.244Z,17.92
2023-05-15T06:58:07.747Z,18.17
2023-05-15T07:00:34.174Z,18.43
2023-05-15T07:03:00.636Z,18.52
2023-05-15T07:05:27.419Z,18.77
2023-05-15T07:07:54.072Z,18.95
2023-05-15T07:10:20.681Z,19.20
2023-05-15T07:12:47.141Z,19.40
2023-05-15T07:15:13.551Z,19.56
2023-05-15T07:17:40.067Z,19.86
2023-05-15T07:20:07.073Z,19.52
2023-05-15T07:22:38.564Z,20.29
2023-05-15T07:25:08.780Z,20.52
2023-05-15T07:27:35.537Z,20.87
2023-05-15T07:30:03.979Z,21.13
2023-05-15T07:32:30.986Z,21.45
2023-05-15T07:34:57.528Z,21.48
2023-05-15T07:37:24.747Z,20.61
2023-05-15T07:39:51.656Z,20.35
2023-05-15T07:42:18.053Z,20.01
2023-05-15T07:44:45.971Z,19.24
2023-05-15T07:47:14.119Z,19.20
2023-05-15T07:49:40.549Z,19.56
2023-05-15T07:52:07.165Z,19.56
2023-05-15T07:54:33.702Z,19.99
2023-05-15T07:57:00.580Z,20.00
2023-05-15T07:59:27.231Z,19.53
2023-05-15T08:01:53.988Z,19.69
2023-05-15T08:04:20.489Z,19.79
2023-05-15T08:06:47.101Z,20.79
2023-05-15T08:09:13.588Z,20.94
2023-05-15T08:11:39.960Z,20.67
2023-05-15T08:14:06.362Z,20.37
2023-05-15T08:16:32.943Z,21.00
2023-05-15T08:19:03.539Z,21.56
2023-05-15T08:21:31.055Z,21.57
2023-05-15T08:23:58.969Z,21.28
2023-05-15T08:26:25.565Z,20.97
2023-05-15T08:28:52.217Z,21.03
2023-05-15T08:31:18.723Z,21.28
2023-05-15T08:33:45.209Z,21.67
2023-05-15T08:36:11.844Z,22.19
2023-05-15T08:38:38.312Z,22.52
2023-05-15T08:41:10.833Z,22.41
2023-05-15T08:43:39.220Z,22.10
2023-05-15T08:46:06.773Z,20.51
2023-05-15T08:48:38.298Z,20.72
2023-05-15T08:51:10.425Z,20.37
2023-05-15T08:53:37.456Z,19.88
2023-05-15T08:56:04.567Z,20.40
2023-05-15T08:58:32.550Z,20.47
2023-05-15T09:00:59.258Z,19.50
2023-05-15T09:03:26.190Z,18.93
2023-05-15T09:05:53.236Z,18.57
2023-05-15T09:08:22.117Z,18.04
2023-05-15T09:10:49.806Z,18.20
2023-05-15T09:13:17.163Z,18.27
2023-05-15T09:15:46.562Z,19.04
2023-05-15T09:18:14.683Z,20.06
2023-05-15T09:20:41.225Z,19.90
2023-05-15T09:23:23.068Z,19.53
2023-05-15T09:25:53.844Z,19.09
2023-05-15T09:28:32.317Z,18.97
2023-05-15T09:31:01.189Z,19.06
2023-05-15T09:33:36.124Z,19.35
2023-05-15T09:36:07.275Z,20.08
2023-05-15T09:38:34.752Z,20.78
2023-05-15T09:41:03.512Z,20.41
2023-05-15T09:43:33.208Z,20.31
2023-05-15T09:45:59.709Z,19.61
2023-05-15T09:48:26.371Z,19.47
2023-05-15T09:50:53.170Z,18.67
2023-05-15T09:53:21.785Z,19.01
2023-05-15T09:55:49.209Z,19.33
2023-05-15T09:58:19.097Z,18.98
2023-05-15T10:00:48.082Z,19.43
2023-05-15T10:03:16.837Z,19.63
2023-05-15T10:05:44.307Z,19.93
2023-05-15T10:08:12.241Z,20.24
2023-05-15T10:10:38.863Z,19.63
2023-05-15T10:13:08.097Z,20.38
2023-05-15T10:15:34.992Z,20.72
2023-05-15T10:18:04.600Z,20.10
2023-05-15T10:20:32.941Z,18.68
2023-05-15T10:23:02.290Z,18.50
2023-05-15T10:25:50.767Z,18.97
2023-05-15T10:28:18.697Z,18.88
2023-05-15T10:30:46.326Z,18.19
2023-05-15T10:33:13.487Z,17.66
2023-05-15T10:35:40.228Z,17.56
2023-05-15T10:38:06.954Z,17.73
2023-05-15T10:40:37.241Z,17.91
2023-05-15T10:43:03.660Z,17.95
2023-05-15T10:45:31.966Z,17.85
2023-05-15T10:47:59.515Z,17.73
2023-05-15T10:50:26.948Z,18.07
2023-05-15T10:52:55.705Z,18.24
2023-05-15T10:55:22.862Z,18.81
2023-05-15T10:57:49.578Z,18.89
2023-05-15T11:00:21.918Z,19.49
2023-05-15T11:02:49.084Z,18.73
2023-05-15T11:05:15.623Z,18.27
2023-05-15T11:07:42.169Z,17.43
2023-05-15T11:10:30.289Z,17.60
2023-05-15T11:13:02.396Z,17.57
2023-05-15T11:15:42.132Z,17.61
2023-05-15T11:18:08.891Z,17.91
2023-05-15T11:20:58.707Z,18.04
2023-05-15T11:23:25.516Z,17.11
2023-05-15T11:25:58.097Z,17.27
2023-05-15T11:28:26.071Z,16.32
2023-05-15T11:30:54.495Z,16.16
2023-05-15T11:33:21.217Z,15.64
2023-05-15T11:35:48.459Z,15.44
2023-05-15T11:38:24.624Z,15.09
2023-05-15T11:40:56.499Z,14.86
2023-05-15T11:43:26.496Z,14.67
2023-05-15T11:45:57.765Z,14.63
2023-05-15T11:48:30.442Z,14.69
2023-05-15T11:50:56.954Z,14.88
2023-05-15T11:53:24.118Z,14.13
2023-05-15T11:55:52.987Z,14.81
2023-05-15T11:58:22.222Z,14.91
2023-05-15T12:00:50.024Z,14.60
2023-05-15T12:03:26.036Z,14.80
2023-05-15T12:05:59.109Z,14.75
2023-05-15T12:08:26.787Z,14.96
2023-05-15T12:10:53.237Z,15.09
2023-05-15T12:13:19.681Z,15.32
2023-05-15T12:15:46.885Z,15.90
2023-05-15T12:18:13.789Z,16.43
2023-05-15T12:20:45.009Z,16.55
2023-05-15T12:23:14.596Z,16.88
2023-05-15T12:25:41.639Z,17.14
2023-05-15T12:28:08.509Z,17.40
2023-05-15T12:30:35.622Z,17.33
2023-05-15T12:33:07.738Z,17.24
2023-05-15T12:35:45.229Z,17.18
2023-05-15T12:38:16.575Z,16.99
2023-05-15T12:40:45.338Z,17.24
2023-05-15T12:43:13.468Z,16.87
2023-05-15T12:45:42.555Z,16.94
2023-05-15T12:48:14.643Z,16.75
2023-05-15T12:50:44.926Z,16.57
2023-05-15T12:53:15.104Z,16.90
2023-05-15T12:55:43.517Z,16.94
2023-05-15T12:58:12.744Z,17.07
2023-05-15T13:00:41.951Z,17.26
2023-05-15T13:03:10.693Z,17.64
2023-05-15T13:05:37.982Z,17.70
2023-05-15T13:08:07.264Z,17.79
2023-05-15T13:10:38.037Z,18.11
2023-05-15T13:13:04.522Z,18.12
2023-05-15T13:15:37.120Z,18.03
2023-05-15T13:18:06.675Z,17.90
2023-05-15T13:20:42.499Z,18.00
2023-05-15T13:23:11.114Z,18.57
2023-05-15T13:25:37.899Z,18.15
2023-05-15T13:28:05.997Z,18.35
2023-05-15T13:30:34.297Z,17.77
2023-05-15T13:33:01.499Z,18.46
2023-05-15T13:35:28.688Z,18.67
2023-05-15T13:37:56.342Z,18.67
2023-05-15T13:40:23.074Z,18.45
2023-05-15T13:42:50.232Z,18.05
2023-05-15T13:45:16.763Z,18.38
2023-05-15T13:47:44.197Z,18.67
2023-05-15T13:50:15.143Z,18.64
2023-05-15T13:52:43.124Z,18.83
2023-05-15T13:55:10.258Z,18.37
2023-05-15T13:57:37.917Z,18.60
2023-05-15T14:00:07.650Z,18.71
2023-05-15T14:02:34.341Z,18.70
2023-05-15T14:05:01.124Z,18.87
2023-05-15T14:07:27.659Z,18.87
2023-05-15T14:09:54.057Z,18.97
2023-05-15T14:12:22.038Z,19.06
2023-05-15T14:14:48.651Z,18.66
2023-05-15T14:17:15.718Z,18.23
2023-05-15T14:19:42.644Z,18.21
2023-05-15T14:22:09.084Z,17.85
2023-05-15T14:24:35.561Z,17.79
2023-05-15T14:27:01.990Z,17.62
2023-05-15T14:29:28.457Z,17.62
2023-05-15T14:31:54.908Z,17.55
2023-05-15T14:34:22.487Z,17.45
2023-05-15T14:36:49.842Z,17.48
2023-05-15T14:39:17.304Z,17.36
2023-05-15T14:41:44.593Z,17.03
2023-05-15T14:44:11.099Z,16.79
2023-05-15T14:46:37.963Z,16.42
2023-05-15T14:49:05.026Z,16.33
2023-05-15T14:51:32.213Z,16.30
2023-05-15T14:53:58.810Z,16.37
2023-05-15T14:56:25.873Z,16.10
2023-05-15T14:58:53.582Z,15.96
2023-05-15T15:01:20.790Z,15.39
2023-05-15T15:03:47.917Z,15.65
2023-05-15T15:06:14.592Z,15.54
2023-05-15T15:08:41.183Z,15.33
2023-05-15T15:11:07.875Z,14.94
2023-05-15T15:13:34.416Z,14.69
2023-05-15T15:16:00.907Z,14.53
2023-05-15T15:18:27.375Z,14.54
2023-05-15T15:20:53.850Z,14.42
2023-05-15T15:23:20.408Z,14.43
2023-05-15T15:25:46.848Z,14.25
2023-05-15T15:28:13.284Z,14.25
2023-05-15T15:30:39.907Z,14.36
2023-05-15T15:33:06.350Z,14.58
2023-05-15T15:35:32.757Z,14.62
2023-05-15T15:37:59.233Z,14.64
2023-05-15T15:40:26.024Z,14.61
2023-05-15T15:42:54.168Z,14.63
2023-05-15T15:45:20.750Z,14.78
2023-05-15T15:47:47.330Z,14.77
2023-05-15T15:50:13.781Z,14.76
2023-05-15T15:52:40.287Z,14.65
2023-05-15T15:55:07.449Z,14.75
2023-05-15T15:57:34.004Z,14.79
2023-05-15T16:00:00.418Z,14.75
2023-05-15T16:02:28.193Z,14.70
2023-05-15T16:04:54.762Z,14.74
2023-05-15T16:07:21.229Z,14.73
2023-05-15T16:09:51.421Z,14.76
2023-05-15T16:12:26.944Z,14.82
2023-05-15T16:14:54.084Z,14.79
2023-05-15T16:17:21.057Z,14.82
2023-05-15T16:19:47.564Z,14.67
2023-05-15T16:22:13.992Z,14.89
2023-05-15T16:24:40.843Z,14.88
2023-05-15T16:27:07.302Z,14.92
2023-05-15T16:29:33.740Z,14.94
2023-05-15T16:32:00.380Z,14.97
2023-05-15T16:34:27.394Z,15.11
2023-05-15T16:36:53.821Z,15.19
2023-05-15T16:39:20.271Z,15.27
2023-05-15T16:41:46.723Z,15.28
2023-05-15T16:44:13.412Z,15.29
2023-05-15T16:46:39.907Z,15.33
2023-05-15T16:49:06.561Z,15.30
2023-05-15T16:51:33.265Z,15.22
2023-05-15T16:53:59.673Z,15.34
2023-05-15T16:56:26.381Z,15.29
2023-05-15T16:58:55.710Z,15.27
2023-05-15T17:01:22.169Z,15.12
2023-05-15T17:03:48.754Z,15.11
2023-05-15T17:06:15.410Z,15.10
2023-05-15T17:08:43.448Z,15.14
2023-05-15T17:11:10.275Z,15.07
2023-05-15T17:13:36.688Z,15.00
2023-05-15T17:16:03.315Z,14.91
2023-05-15T17:18:29.911Z,14.90
2023-05-15T17:20:56.284Z,14.91
2023-05-15T17:23:23.205Z,14.87
2023-05-15T17:25:49.648Z,14.91
2023-05-15T17:28:16.079Z,14.95
2023-05-15T17:30:42.672Z,15.01
2023-05-15T17:33:09.159Z,15.05
2023-05-15T17:35:35.673Z,14.97
2023-05-15T17:38:02.132Z,14.96
2023-05-15T17:40:28.557Z,14.80
2023-05-15T17:42:55.021Z,14.85
2023-05-15T17:45:21.424Z,14.77
2023-05-15T17:47:49.136Z,14.70
2023-05-15T17:50:15.684Z,14.46
2023-05-15T17:52:42.140Z,14.24
2023-05-15T17:55:08.926Z,14.20
2023-05-15T17:57:35.387Z,14.27
2023-05-15T18:00:01.972Z,14.32
2023-05-15T18:02:38.658Z,14.31
2023-05-15T18:05:05.746Z,14.08
2023-05-15T18:07:32.178Z,14.09
2023-05-15T18:09:58.595Z,14.10
2023-05-15T18:12:25.016Z,14.06
2023-05-15T18:14:51.507Z,14.05
2023-05-15T18:17:18.117Z,14.09
2023-05-15T18:19:44.786Z,13.96
2023-05-15T18:22:11.652Z,13.86
2023-05-15T18:24:38.063Z,13.84
2023-05-15T18:27:04.796Z,13.84
2023-05-15T18:29:31.268Z,13.86
2023-05-15T18:31:57.792Z,13.88
2023-05-15T18:34:24.358Z,13.87
2023-05-15T18:36:51.988Z,13.91
2023-05-15T18:39:18.928Z,13.84
2023-05-15T18:41:45.466Z,13.70
2023-05-15T18:44:11.906Z,13.66
2023-05-15T18:46:38.643Z,13.72
2023-05-15T18:49:05.220Z,13.59
2023-05-15T18:51:31.818Z,13.57
2023-05-15T18:53:58.365Z,13.52
2023-05-15T18:56:25.216Z,13.47
2023-05-15T18:58:51.729Z,13.55
2023-05-15T19:01:18.373Z,13.47
2023-05-15T19:03:44.934Z,13.47
2023-05-15T19:06:13.311Z,13.57
2023-05-15T19:08:39.753Z,13.58
2023-05-15T19:11:06.238Z,13.50
2023-05-15T19:13:33.083Z,13.47
2023-05-15T19:15:59.516Z,13.53
2023-05-15T19:18:25.928Z,13.48
2023-05-15T19:20:52.421Z,13.47
2023-05-15T19:23:20.486Z,13.50
2023-05-15T19:25:47.039Z,13.40
2023-05-15T19:28:14.750Z,13.33
2023-05-15T19:30:41.546Z,13.22
2023-05-15T19:33:08.155Z,13.23
2023-05-15T19:35:36.712Z,13.28
2023-05-15T19:38:03.986Z,13.00
2023-05-15T19:40:30.532Z,13.24
2023-05-15T19:42:56.974Z,13.26
2023-05-15T19:45:23.476Z,13.20
2023-05-15T19:47:49.919Z,13.13
2023-05-15T19:50:16.452Z,13.10
2023-05-15T19:52:45.316Z,13.09
2023-05-15T19:55:12.223Z,13.09
2023-05-15T19:57:40.180Z,12.98
2023-05-15T20:00:08.005Z,13.02
2023-05-15T20:02:34.628Z,12.88
2023-05-15T20:05:01.195Z,12.92
2023-05-15T20:07:27.726Z,12.97
2023-05-15T20:09:55.374Z,12.88
2023-05-15T20:12:21.934Z,12.91
2023-05-15T20:14:49.536Z,12.91
2023-05-15T20:17:17.755Z,12.59
2023-05-15T20:19:44.356Z,12.66
2023-05-15T20:22:10.811Z,12.61
2023-05-15T20:24:38.446Z,12.73
2023-05-15T20:27:05.305Z,12.68
2023-05-15T20:29:31.713Z,12.63
2023-05-15T20:31:59.365Z,12.71
2023-05-15T20:34:25.934Z,12.69
2023-05-15T20:36:52.679Z,12.70
2023-05-15T20:39:20.121Z,12.08
2023-05-15T20:41:47.900Z,12.69
2023-05-15T20:44:14.319Z,12.71
2023-05-15T20:46:42.538Z,12.60
2023-05-15T20:49:08.963Z,12.74
2023-05-15T20:51:35.897Z,12.69
2023-05-15T20:54:02.382Z,12.69
2023-05-15T20:56:29.174Z,12.76
2023-05-15T20:58:56.854Z,12.83
2023-05-15T21:01:25.721Z,12.76
2023-05-15T21:03:52.270Z,12.74
2023-05-15T21:06:18.799Z,12.70
2023-05-15T21:08:45.209Z,12.72
2023-05-15T21:11:11.763Z,12.69
2023-05-15T21:13:38.321Z,12.60
2023-05-15T21:16:05.119Z,12.65
2023-05-15T21:18:31.570Z,12.61
2023-05-15T21:20:58.107Z,12.56
2023-05-15T21:23:24.561Z,12.53
2023-05-15T21:25:51.024Z,12.51
2023-05-15T21:28:17.458Z,12.53
2023-05-15T21:30:44.302Z,12.42
2023-05-15T21:33:10.874Z,12.40
2023-05-15T21:35:38.031Z,12.45
2023-05-15T21:38:04.553Z,12.36
2023-05-15T21:40:31.225Z,12.23
2023-05-15T21:42:57.683Z,12.34
2023-05-15T21:45:24.120Z,12.21
2023-05-15T21:47:50.702Z,12.27
2023-05-15T21:50:17.377Z,12.12
2023-05-15T21:52:43.807Z,12.11
2023-05-15T21:55:10.679Z,12.09
2023-05-15T21:57:37.085Z,12.07
2023-05-15T22:00:06.791Z,12.07
2023-05-15T22:02:33.212Z,12.01
2023-05-15T22:04:59.791Z,12.06
2023-05-15T22:07:26.224Z,12.07
2023-05-15T22:09:53.103Z,12.07
2023-05-15T22:12:21.057Z,12.17
2023-05-15T22:14:58.580Z,12.13
2023-05-15T22:17:27.082Z,12.19
2023-05-15T22:19:53.715Z,12.10
2023-05-15T22:22:20.846Z,12.16
2023-05-15T22:24:47.815Z,12.01
2023-05-15T22:27:16.472Z,11.95
2023-05-15T22:29:42.922Z,11.84
2023-05-15T22:32:09.455Z,11.76
2023-05-15T22:34:36.066Z,11.81
2023-05-15T22:37:02.527Z,11.81
2023-05-15T22:39:28.903Z,11.75
2023-05-15T22:41:55.880Z,11.82
2023-05-15T22:44:22.552Z,11.74
2023-05-15T22:46:49.575Z,11.72
2023-05-15T22:49:19.220Z,11.57
2023-05-15T22:51:45.787Z,11.62
2023-05-15T22:54:12.225Z,11.61
2023-05-15T22:56:38.652Z,11.63
2023-05-15T22:59:05.649Z,11.57
2023-05-15T23:01:32.226Z,11.37
2023-05-15T23:03:58.857Z,11.42
2023-05-15T23:06:25.359Z,11.23
2023-05-15T23:08:51.891Z,11.22
2023-05-15T23:11:18.309Z,11.05
2023-05-15T23:13:44.742Z,10.53
2023-05-15T23:16:11.212Z,11.17
2023-05-15T23:18:37.957Z,11.02
2023-05-15T23:21:04.762Z,10.75
2023-05-15T23:23:31.321Z,10.91
2023-05-15T23:25:57.735Z,10.87
2023-05-15T23:28:24.345Z,10.87
2023-05-15T23:30:54.700Z,10.93
2023-05-15T23:33:21.690Z,10.82
2023-05-15T23:35:48.139Z,10.76
2023-05-15T23:38:14.614Z,10.50
2023-05-15T23:40:41.031Z,10.47
2023-05-15T23:43:07.441Z,10.43
2023-05-15T23:45:35.172Z,10.44
2023-05-15T23:48:01.619Z,10.46
2023-05-15T23:50:28.651Z,10.30
2023-05-15T23:52:55.246Z,10.37
2023-05-15T23:55:21.697Z,10.35
2023-05-15T23:57:48.333Z,10.39
